createdAt,value
2023-01-25T00:00:43.127Z,-0.56
2023-01-25T00:04:30.675Z,-0.56
2023-01-25T00:08:29.082Z,-0.58
2023-01-25T00:12:16.681Z,-0.59
2023-01-25T00:16:04.683Z,-0.61
2023-01-25T00:19:53.342Z,-0.61
2023-01-25T00:23:41.971Z,-0.63
2023-01-25T00:27:30.363Z,-0.64
2023-01-25T00:31:18.337Z,-0.64
2023-01-25T00:35:08.480Z,-0.66
2023-01-25T00:47:09.645Z,-0.68
2023-01-25T00:50:58.918Z,-0.71
2023-01-25T00:54:47.976Z,-0.73
2023-01-25T00:58:36.962Z,-0.73
2023-01-25T01:02:26.200Z,-0.74
2023-01-25T01:06:15.429Z,-0.76
2023-01-25T01:10:05.367Z,-0.77
2023-01-25T01:13:56.084Z,-0.78
2023-01-25T01:17:46.352Z,-0.79
2023-01-25T01:25:32.519Z,-0.78
2023-01-25T01:29:21.608Z,-0.79
2023-01-25T01:33:10.556Z,-0.78
2023-01-25T01:36:59.680Z,-0.79
2023-01-25T01:40:49.778Z,-0.80
2023-01-25T01:48:31.928Z,-0.82
2023-01-25T02:00:37.012Z,-0.84
2023-01-25T02:04:26.293Z,-0.85
2023-01-25T02:08:17.801Z,-0.85
2023-01-25T02:12:06.870Z,-0.87
2023-01-25T02:15:56.112Z,-0.86
2023-01-25T02:31:49.211Z,-0.82
2023-01-25T02:35:38.387Z,-0.82
2023-01-25T02:39:26.195Z,-0.80
2023-01-25T02:58:49.966Z,-0.73
2023-01-25T03:02:38.850Z,-0.75
2023-01-25T03:06:28.023Z,-0.78
2023-01-25T03:10:17.398Z,-0.80
2023-01-25T03:14:06.321Z,-0.80
2023-01-25T03:17:55.326Z,-0.81
2023-01-25T03:21:44.527Z,-0.82
2023-01-25T03:41:26.967Z,-0.82
2023-01-25T03:45:14.898Z,-0.84
2023-01-25T03:49:02.858Z,-0.84
2023-01-25T03:52:53.359Z,-0.83
2023-01-25T03:56:44.294Z,-0.83
2023-01-25T04:04:47.371Z,-0.83
2023-01-25T04:08:36.313Z,-0.85
2023-01-25T04:12:25.374Z,-0.84
2023-01-25T04:16:14.402Z,-0.84
2023-01-25T04:20:02.333Z,-0.85
2023-01-25T04:23:51.387Z,-0.85
2023-01-25T04:27:40.340Z,-0.85
2023-01-25T04:31:29.681Z,-0.84
2023-01-25T04:35:18.600Z,-0.86
2023-01-25T04:39:06.960Z,-0.85
2023-01-25T04:42:55.929Z,-0.84
2023-01-25T04:46:45.099Z,-0.84
2023-01-25T04:50:26.602Z,-0.85
2023-01-25T04:54:15.819Z,-0.85
2023-01-25T05:02:02.942Z,-0.83
2023-01-25T05:05:45.357Z,-0.87
2023-01-25T05:09:34.546Z,-0.87
2023-01-25T05:13:23.608Z,-0.87
2023-01-25T05:17:12.632Z,-0.87
2023-01-25T05:21:01.567Z,-0.87
2023-01-25T05:24:50.756Z,-0.86
2023-01-25T05:28:39.992Z,-0.86
2023-01-25T05:32:31.921Z,-0.84
2023-01-25T05:36:20.208Z,-0.82
2023-01-25T05:40:10.704Z,-0.80
2023-01-25T05:44:01.630Z,-0.78
2023-01-25T05:47:56.255Z,-0.78
2023-01-25T05:51:46.396Z,-0.76
2023-01-25T05:55:35.532Z,-0.76
2023-01-25T05:59:24.562Z,-0.75
2023-01-25T06:03:13.642Z,-0.74
2023-01-25T06:10:51.523Z,-0.70
2023-01-25T06:14:42.583Z,-0.70
2023-01-25T06:19:04.727Z,-0.66
2023-01-25T06:23:08.855Z,-0.66
2023-01-25T06:58:55.335Z,-0.55
2023-01-25T07:02:44.413Z,-0.56
2023-01-25T07:06:09.188Z,-0.58
2023-01-25T07:09:59.241Z,-0.60
2023-01-25T07:13:39.828Z,-0.60
2023-01-25T07:17:07.558Z,-0.59
2023-01-25T08:09:25.891Z,-0.44
2023-01-25T08:12:46.597Z,-0.44
2023-01-25T08:16:37.541Z,-0.44
2023-01-25T08:20:18.681Z,-0.43
2023-01-25T08:24:07.853Z,-0.41
2023-01-25T08:27:57.374Z,-0.38
2023-01-25T08:31:30.075Z,-0.36
2023-01-25T08:34:50.644Z,-0.35
2023-01-25T08:38:23.287Z,-0.33
2023-01-25T08:42:14.502Z,-0.29
2023-01-25T08:49:41.962Z,-0.22
2023-01-25T09:12:47.822Z,-0.05
2023-01-25T09:16:43.059Z,0.01
2023-01-25T09:20:34.323Z,0.10
2023-01-25T09:24:25.812Z,0.18
2023-01-25T09:28:17.063Z,0.23
2023-01-25T09:32:08.287Z,0.25
2023-01-25T09:35:56.515Z,0.25
2023-01-25T10:06:09.605Z,0.55
2023-01-25T10:09:58.744Z,0.62
2023-01-25T10:26:02.312Z,0.69
2023-01-25T10:29:59.439Z,0.67
2023-01-25T10:33:41.475Z,0.64
2023-01-25T10:45:18.214Z,0.81
2023-01-25T10:48:38.536Z,0.78
2023-01-25T10:52:21.992Z,0.74
2023-01-25T10:56:16.962Z,0.77
2023-01-25T11:00:06.146Z,0.80
2023-01-25T11:08:06.062Z,0.79
2023-01-25T11:12:04.870Z,0.72
2023-01-25T11:15:33.753Z,0.64
2023-01-25T11:19:29.851Z,0.58
2023-01-25T11:23:10.033Z,0.56
2023-01-25T11:25:53.579Z,0.51
2023-01-25T11:29:15.719Z,0.46
2023-01-25T11:49:16.161Z,0.37
2023-01-25T11:53:03.646Z,0.39
2023-01-25T11:57:26.267Z,0.38
2023-01-25T12:13:05.978Z,0.28
2023-01-25T12:17:09.401Z,0.29
2023-01-25T12:21:26.384Z,0.30
2023-01-25T12:25:25.316Z,0.31
2023-01-25T12:37:06.039Z,0.32
2023-01-25T12:40:59.867Z,0.32
2023-01-25T12:44:46.732Z,0.31
2023-01-25T12:52:31.749Z,0.33
2023-01-25T12:56:19.446Z,0.35
2023-01-25T12:59:35.969Z,0.37
2023-01-25T13:02:48.402Z,0.39
2023-01-25T13:05:43.139Z,0.41
2023-01-25T13:09:16.836Z,0.40
2023-01-25T13:12:57.564Z,0.34
2023-01-25T13:16:35.436Z,0.27
2023-01-25T13:35:59.321Z,0.24
2023-01-25T13:39:39.470Z,0.21
2023-01-25T13:43:11.836Z,0.18
2023-01-25T13:47:01.103Z,0.17
2023-01-25T13:50:34.801Z,0.12
2023-01-25T14:05:47.532Z,0.02
2023-01-25T14:09:36.440Z,-0.02
2023-01-25T14:13:08.110Z,-0.04
2023-01-25T14:16:57.338Z,-0.05
2023-01-25T14:32:03.553Z,-0.05
2023-01-25T14:36:16.379Z,-0.07
2023-01-25T14:40:21.908Z,-0.07
2023-01-25T14:43:41.282Z,-0.05
2023-01-25T14:51:38.104Z,-0.03
2023-01-25T14:55:33.283Z,-0.05
2023-01-25T14:59:22.553Z,-0.05
2023-01-25T15:11:30.761Z,-0.05
2023-01-25T15:14:52.862Z,-0.09
2023-01-25T15:18:44.784Z,-0.12
2023-01-25T15:22:40.384Z,-0.12
2023-01-25T15:26:30.477Z,-0.12
2023-01-25T15:30:19.515Z,-0.14
2023-01-25T15:42:29.374Z,-0.14
2023-01-25T15:46:16.962Z,-0.16
2023-01-25T15:50:07.358Z,-0.17
2023-01-25T15:53:55.089Z,-0.18
2023-01-25T15:57:42.768Z,-0.19
2023-01-25T16:13:35.360Z,-0.19
2023-01-25T16:17:24.411Z,-0.21
2023-01-25T16:21:19.166Z,-0.22
2023-01-25T16:25:08.647Z,-0.23
2023-01-25T16:28:57.715Z,-0.23
2023-01-25T16:32:48.487Z,-0.23
2023-01-25T16:36:39.699Z,-0.22
2023-01-25T16:52:15.079Z,-0.17
2023-01-25T16:56:04.034Z,-0.21
2023-01-25T16:59:53.119Z,-0.22
2023-01-25T17:03:42.196Z,-0.23
2023-01-25T17:07:31.257Z,-0.25
2023-01-25T17:11:20.956Z,-0.28
2023-01-25T17:15:10.067Z,-0.29
2023-01-25T17:18:59.079Z,-0.31
2023-01-25T17:22:48.352Z,-0.34
2023-01-25T17:38:45.585Z,-0.39
2023-01-25T17:42:33.432Z,-0.41
2023-01-25T17:46:20.997Z,-0.41
2023-01-25T17:50:09.742Z,-0.42
2023-01-25T17:53:58.973Z,-0.43
2023-01-25T18:06:07.673Z,-0.42
2023-01-25T18:09:55.216Z,-0.45
2023-01-25T18:13:43.337Z,-0.46
2023-01-25T18:17:30.890Z,-0.48
2023-01-25T18:21:20.571Z,-0.50
2023-01-25T18:33:44.490Z,-0.45
2023-01-25T18:37:39.526Z,-0.46
2023-01-25T18:41:27.259Z,-0.47
2023-01-25T18:45:15.401Z,-0.47
2023-01-25T18:53:18.827Z,-0.46
2023-01-25T18:57:07.939Z,-0.47
2023-01-25T19:00:57.069Z,-0.47
2023-01-25T19:04:46.174Z,-0.47
2023-01-25T19:08:35.133Z,-0.47
2023-01-25T19:12:24.478Z,-0.49
2023-01-25T19:16:13.559Z,-0.51
2023-01-25T19:20:02.567Z,-0.52
2023-01-25T19:23:51.657Z,-0.54
2023-01-25T19:27:42.718Z,-0.53
2023-01-25T19:31:28.985Z,-0.52
2023-01-25T19:50:56.996Z,-0.61
2023-01-25T19:54:46.301Z,-0.70
2023-01-25T19:58:35.465Z,-0.73
2023-01-25T20:02:15.668Z,-0.73
2023-01-25T20:05:44.701Z,-0.71
2023-01-25T20:09:33.587Z,-0.70
2023-01-25T20:13:22.824Z,-0.70
2023-01-25T20:17:11.547Z,-0.71
2023-01-25T20:21:01.660Z,-0.72
2023-01-25T20:24:51.934Z,-0.72
2023-01-25T20:28:41.924Z,-0.71
2023-01-25T20:44:10.470Z,-0.65
2023-01-25T20:47:49.867Z,-0.67
2023-01-25T20:51:42.009Z,-0.67
2023-01-25T20:55:30.970Z,-0.68
2023-01-25T20:59:20.119Z,-0.67
2023-01-25T21:03:09.158Z,-0.67
2023-01-25T21:07:23.491Z,-0.65
2023-01-25T21:11:12.765Z,-0.66
2023-01-25T21:15:01.635Z,-0.65
2023-01-25T21:18:53.647Z,-0.66
2023-01-25T21:22:35.823Z,-0.67
2023-01-25T21:26:27.720Z,-0.66
2023-01-25T21:30:18.559Z,-0.66
2023-01-25T21:57:10.813Z,-0.67
2023-01-25T22:01:00.021Z,-0.70
2023-01-25T22:04:49.143Z,-0.69
2023-01-25T22:08:38.164Z,-0.68
2023-01-25T22:12:27.108Z,-0.70
2023-01-25T22:16:16.093Z,-0.71
2023-01-25T22:20:05.076Z,-0.73
2023-01-25T22:23:54.065Z,-0.76
2023-01-25T22:27:57.968Z,-0.77
2023-01-25T22:31:47.147Z,-0.79
2023-01-25T22:36:06.712Z,-0.78
2023-01-25T22:39:55.758Z,-0.78
2023-01-25T22:43:44.767Z,-0.77
2023-01-25T22:47:33.752Z,-0.78
2023-01-25T22:51:25.329Z,-0.78
2023-01-25T22:55:14.796Z,-0.78
2023-01-25T22:59:03.866Z,-0.79
2023-01-25T23:02:52.834Z,-0.78
2023-01-25T23:06:42.003Z,-0.76
2023-01-25T23:10:31.217Z,-0.76
2023-01-25T23:13:40.710Z,-0.76
2023-01-25T23:17:28.370Z,-0.76
2023-01-25T23:21:17.391Z,-0.76
2023-01-25T23:25:06.484Z,-0.75
2023-01-25T23:28:55.667Z,-0.76
2023-01-25T23:32:44.819Z,-0.76
2023-01-25T23:36:24.650Z,-0.76
2023-01-25T23:40:14.934Z,-0.76
2023-01-25T23:44:10.204Z,-0.77
